createdAt,value
2023-02-18T00:03:38.892Z,36.41
2023-02-18T00:08:42.064Z,36.85
2023-02-18T00:13:43.984Z,38.26
2023-02-18T00:18:45.726Z,41.22
2023-02-18T00:23:47.645Z,42.70
2023-02-18T00:28:49.535Z,41.49
2023-02-18T00:33:51.481Z,39.66
2023-02-18T00:38:56.043Z,39.55
2023-02-18T00:43:58.211Z,38.57
2023-02-18T00:48:59.964Z,39.01
2023-02-18T00:54:01.927Z,39.23
2023-02-18T00:59:03.869Z,38.73
2023-02-18T01:04:05.621Z,37.86
2023-02-18T01:09:07.602Z,38.21
2023-02-18T01:14:09.356Z,39.11
2023-02-18T01:19:11.168Z,37.90
2023-02-18T01:24:13.468Z,37.50
2023-02-18T01:29:17.506Z,37.71
2023-02-18T01:34:19.214Z,37.91
2023-02-18T01:39:20.973Z,38.87
2023-02-18T01:44:25.893Z,39.40
2023-02-18T01:49:32.343Z,38.37
2023-02-18T01:54:39.767Z,38.01
2023-02-18T01:59:50.191Z,38.04
2023-02-18T02:04:52.511Z,38.13
2023-02-18T02:09:57.354Z,37.96
2023-02-18T02:15:06.416Z,37.42
2023-02-18T02:20:39.486Z,38.26
2023-02-18T02:26:05.513Z,40.08
2023-02-18T02:31:45.957Z,38.47
2023-02-18T02:36:56.720Z,37.73
2023-02-18T02:42:04.942Z,37.69
2023-02-18T02:47:14.477Z,37.71
2023-02-18T02:52:23.947Z,38.33
2023-02-18T02:57:27.175Z,38.10
2023-02-18T03:03:03.417Z,37.96
2023-02-18T03:08:13.146Z,38.09
2023-02-18T03:13:25.910Z,38.02
2023-02-18T03:19:02.011Z,37.64
2023-02-18T03:24:17.751Z,37.59
2023-02-18T03:29:21.141Z,37.63
2023-02-18T03:34:29.848Z,40.37
2023-02-18T03:39:37.134Z,40.50
2023-02-18T03:44:39.107Z,39.94
2023-02-18T03:49:40.985Z,39.06
2023-02-18T03:54:42.820Z,40.89
2023-02-18T03:59:44.588Z,40.07
2023-02-18T04:04:46.387Z,42.98
2023-02-18T04:09:48.194Z,40.67
2023-02-18T04:14:50.078Z,39.71
2023-02-18T04:19:53.992Z,39.94
2023-02-18T04:24:55.784Z,39.39
2023-02-18T04:29:57.694Z,39.44
2023-02-18T04:34:59.558Z,38.13
2023-02-18T04:40:01.435Z,38.25
2023-02-18T04:45:03.694Z,39.88
2023-02-18T04:50:06.188Z,41.29
2023-02-18T04:55:08.104Z,40.96
2023-02-18T05:00:15.210Z,39.86
2023-02-18T05:05:17.061Z,40.47
2023-02-18T05:10:18.989Z,38.81
2023-02-18T05:15:21.049Z,38.91
2023-02-18T05:20:22.815Z,39.79
2023-02-18T05:25:24.676Z,39.56
2023-02-18T05:30:26.595Z,39.17
2023-02-18T05:35:28.412Z,40.90
2023-02-18T05:40:30.671Z,40.62
2023-02-18T05:45:32.688Z,41.11
2023-02-18T05:50:34.737Z,40.26
2023-02-18T05:55:39.014Z,40.64
2023-02-18T06:00:40.920Z,39.89
2023-02-18T06:05:42.690Z,43.23
2023-02-18T06:10:44.444Z,41.90
2023-02-18T06:15:46.462Z,43.15
2023-02-18T06:20:49.353Z,42.33
2023-02-18T06:25:51.226Z,42.69
2023-02-18T06:30:53.251Z,41.54
2023-02-18T06:36:00.767Z,40.53
2023-02-18T06:41:03.056Z,40.16
2023-02-18T06:46:05.974Z,39.87
2023-02-18T06:51:07.947Z,41.67
2023-02-18T06:56:10.467Z,40.28
2023-02-18T07:01:12.461Z,40.00
2023-02-18T07:06:14.219Z,39.56
2023-02-18T07:11:15.995Z,39.32
2023-02-18T07:16:17.978Z,39.66
2023-02-18T07:21:19.751Z,39.45
2023-02-18T07:26:21.491Z,40.09
2023-02-18T07:31:23.316Z,39.72
2023-02-18T07:36:25.063Z,40.20
2023-02-18T07:41:26.829Z,39.90
2023-02-18T07:46:28.607Z,39.90
2023-02-18T07:51:30.408Z,39.16
2023-02-18T07:56:32.224Z,39.38
2023-02-18T08:01:33.960Z,39.23
2023-02-18T08:06:41.497Z,40.17
2023-02-18T08:11:44.005Z,40.76
2023-02-18T08:16:45.948Z,39.81
2023-02-18T08:21:47.796Z,39.36
2023-02-18T08:27:00.231Z,39.16
2023-02-18T08:32:02.843Z,39.56
2023-02-18T08:37:05.105Z,40.41
2023-02-18T08:42:07.161Z,40.15
2023-02-18T08:48:16.914Z,39.32
2023-02-18T08:52:31.350Z,39.13
2023-02-18T08:57:33.332Z,39.77
2023-02-18T09:02:35.106Z,39.25
2023-02-18T09:07:37.935Z,38.97
2023-02-18T09:12:39.736Z,38.59
2023-02-18T09:17:41.717Z,39.36
2023-02-18T09:22:43.476Z,40.10
2023-02-18T09:27:45.210Z,37.19
2023-02-18T09:32:46.921Z,41.00
2023-02-18T09:37:48.658Z,40.31
2023-02-18T09:42:50.566Z,38.90
2023-02-18T09:47:53.520Z,45.31
2023-02-18T09:52:58.397Z,45.63
2023-02-18T09:58:04.471Z,42.22
2023-02-18T10:03:27.055Z,43.72
2023-02-18T10:08:36.854Z,41.49
2023-02-18T10:13:38.656Z,46.08
2023-02-18T10:18:43.479Z,47.89
2023-02-18T10:24:03.055Z,46.69
2023-02-18T10:29:14.479Z,47.90
2023-02-18T10:34:41.601Z,48.79
2023-02-18T10:40:11.281Z,50.36
2023-02-18T10:45:31.346Z,48.30
2023-02-18T10:50:41.684Z,48.13
2023-02-18T10:55:46.994Z,47.04
2023-02-18T11:00:48.883Z,49.45
2023-02-18T11:05:56.461Z,48.75
2023-02-18T11:10:58.463Z,52.37
2023-02-18T11:16:04.192Z,52.65
2023-02-18T11:21:21.363Z,50.43
2023-02-18T11:26:35.146Z,52.09
2023-02-18T11:31:47.038Z,47.68
2023-02-18T11:36:50.778Z,41.80
2023-02-18T11:42:04.977Z,41.84
2023-02-18T11:47:12.977Z,39.92
2023-02-18T11:52:19.110Z,42.38
2023-02-18T11:57:26.332Z,36.67
2023-02-18T12:02:41.220Z,36.96
2023-02-18T12:07:50.799Z,35.23
2023-02-18T12:13:02.184Z,33.17
2023-02-18T12:18:40.800Z,33.78
2023-02-18T12:24:04.263Z,34.61
2023-02-18T12:29:35.818Z,39.90
2023-02-18T12:34:54.340Z,39.48
2023-02-18T12:40:27.030Z,38.57
2023-02-18T12:46:06.419Z,39.96
2023-02-18T12:51:48.435Z,44.77
2023-02-18T12:57:08.862Z,37.13
2023-02-18T13:02:34.911Z,43.68
2023-02-18T13:07:51.518Z,41.35
2023-02-18T13:13:11.372Z,41.25
2023-02-18T13:18:20.535Z,40.59
2023-02-18T13:23:31.232Z,42.22
2023-02-18T13:28:54.800Z,35.83
2023-02-18T13:34:09.087Z,38.06
2023-02-18T13:39:19.981Z,39.11
2023-02-18T13:44:22.216Z,44.60
2023-02-18T13:49:31.512Z,40.35
2023-02-18T13:54:45.485Z,40.42
2023-02-18T13:59:52.059Z,40.38
2023-02-18T14:05:14.162Z,37.15
2023-02-18T14:10:21.574Z,38.26
2023-02-18T14:15:23.382Z,37.58
2023-02-18T14:20:37.029Z,41.95
2023-02-18T14:25:40.883Z,45.31
2023-02-18T14:30:43.152Z,42.73
2023-02-18T14:36:08.887Z,38.69
2023-02-18T14:41:13.534Z,36.34
2023-02-18T14:46:35.747Z,38.77
2023-02-18T14:51:41.719Z,39.04
2023-02-18T14:56:55.950Z,39.81
2023-02-18T15:01:57.966Z,38.63
2023-02-18T15:07:02.966Z,37.28
2023-02-18T15:12:08.045Z,40.25
2023-02-18T15:17:17.660Z,38.73
2023-02-18T15:22:23.208Z,36.60
2023-02-18T15:27:32.790Z,40.11
2023-02-18T15:32:34.615Z,39.19
2023-02-18T15:37:36.358Z,36.60
2023-02-18T15:42:38.521Z,34.61
2023-02-18T15:47:53.279Z,35.50
2023-02-18T15:52:59.639Z,31.30
2023-02-18T15:58:09.434Z,38.02
2023-02-18T16:03:25.899Z,32.16
2023-02-18T16:08:28.176Z,31.35
2023-02-18T16:13:31.775Z,34.31
2023-02-18T16:18:40.918Z,41.21
2023-02-18T16:23:45.922Z,42.53
2023-02-18T16:28:51.105Z,41.57
2023-02-18T16:33:52.940Z,37.66
2023-02-18T16:38:54.881Z,34.65
2023-02-18T16:43:57.339Z,32.15
2023-02-18T16:48:59.155Z,30.51
2023-02-18T16:54:01.142Z,30.85
2023-02-18T16:59:03.344Z,30.94
2023-02-18T17:04:06.028Z,30.64
2023-02-18T17:09:27.333Z,31.86
2023-02-18T17:14:29.276Z,31.89
2023-02-18T17:19:31.006Z,33.84
2023-02-18T17:24:32.761Z,33.75
2023-02-18T17:29:34.505Z,34.42
2023-02-18T17:34:38.163Z,33.58
2023-02-18T17:39:40.223Z,33.58
2023-02-18T17:44:42.261Z,32.61
2023-02-18T17:49:44.393Z,34.10
2023-02-18T17:54:46.144Z,34.36
2023-02-18T17:59:47.858Z,33.58
2023-02-18T18:04:49.618Z,34.22
2023-02-18T18:09:51.424Z,37.26
2023-02-18T18:14:53.203Z,37.28
2023-02-18T18:19:54.922Z,35.22
2023-02-18T18:24:56.636Z,36.34
2023-02-18T18:29:58.373Z,35.03
2023-02-18T18:35:00.208Z,37.40
2023-02-18T18:40:02.224Z,35.13
2023-02-18T18:45:04.934Z,35.39
2023-02-18T18:50:07.069Z,38.88
2023-02-18T18:55:31.787Z,38.91
2023-02-18T19:00:37.288Z,39.37
2023-02-18T19:05:44.666Z,37.79
2023-02-18T19:10:49.583Z,40.92
2023-02-18T19:16:01.135Z,41.89
2023-02-18T19:21:04.634Z,39.56
2023-02-18T19:26:07.885Z,41.46
2023-02-18T19:31:10.702Z,41.20
2023-02-18T19:36:14.722Z,40.51
2023-02-18T19:41:17.058Z,40.78
2023-02-18T19:46:19.131Z,39.32
2023-02-18T19:51:24.754Z,37.88
2023-02-18T19:56:26.517Z,37.66
2023-02-18T20:01:28.314Z,37.66
2023-02-18T20:06:30.107Z,36.85
2023-02-18T20:11:32.242Z,38.05
2023-02-18T20:16:34.010Z,39.65
2023-02-18T20:21:35.846Z,38.80
2023-02-18T20:26:38.225Z,38.20
2023-02-18T20:31:42.499Z,38.37
2023-02-18T20:36:48.180Z,37.94
2023-02-18T20:41:50.309Z,37.54
2023-02-18T20:46:52.031Z,38.42
2023-02-18T20:51:53.754Z,39.22
2023-02-18T20:56:55.496Z,38.81
2023-02-18T21:01:57.276Z,38.64
2023-02-18T21:06:59.127Z,38.57
2023-02-18T21:12:00.920Z,37.98
2023-02-18T21:17:03.555Z,38.28
2023-02-18T21:22:05.347Z,38.56
2023-02-18T21:27:07.178Z,38.36
2023-02-18T21:32:09.287Z,38.00
2023-02-18T21:37:11.310Z,37.86
2023-02-18T21:42:13.076Z,38.58
2023-02-18T21:47:14.953Z,37.86
2023-02-18T21:52:16.725Z,41.15
2023-02-18T21:57:21.912Z,44.10
2023-02-18T22:02:25.967Z,41.72
2023-02-18T22:07:29.845Z,41.46
2023-02-18T22:12:32.722Z,43.72
2023-02-18T22:17:34.856Z,40.66
2023-02-18T22:22:36.636Z,41.95
2023-02-18T22:27:38.372Z,43.24
2023-02-18T22:32:40.119Z,42.69
2023-02-18T22:37:41.978Z,40.53
2023-02-18T22:42:43.774Z,41.08
2023-02-18T22:47:45.560Z,39.90
2023-02-18T22:52:47.369Z,38.62
2023-02-18T22:57:49.141Z,40.51
2023-02-18T23:02:54.687Z,39.14
2023-02-18T23:07:56.711Z,38.37
2023-02-18T23:12:58.575Z,38.05
2023-02-18T23:18:00.465Z,38.21
2023-02-18T23:23:02.278Z,38.40
2023-02-18T23:28:04.187Z,39.83
2023-02-18T23:33:05.970Z,40.57
2023-02-18T23:38:09.121Z,40.32
2023-02-18T23:43:10.878Z,38.80
2023-02-18T23:48:12.619Z,38.71
2023-02-18T23:53:14.425Z,40.81
2023-02-18T23:58:16.152Z,41.15
